Time,TemperatureF,DewpointF,PressureIn,WindDirection,WindDirectionDegrees,WindSpeedMPH,WindSpeedGustMPH,Humidity,HourlyPrecipIn,Conditions,Clouds,dailyrainin,SolarRadiationWatts/m^2,SoftwareType,DateUTC
2013-06-04 00:05:00,71.7,69.6,29.87,ENE,60,0.0,0.0,93,0.00,,,0.00,0,Wunderground v.1.15,2013-06-04 05:05:00,
2013-06-04 00:10:00,71.7,69.6,29.87,ENE,60,0.0,0.0,93,0.00,,,0.00,0,Wunderground v.1.15,2013-06-04 05:10:00,
2013-06-04 00:15:00,71.7,69.3,29.87,ENE,60,0.0,0.0,92,0.00,,,0.00,0,Wunderground v.1.15,2013-06-04 05:15:00,
2013-06-04 00:20:00,71.7,68.9,29.88,ENE,60,0.0,0.0,91,0.00,,,0.00,0,Wunderground v.1.15,2013-06-04 05:20:00,
2013-06-04 00:29:00,71.6,69.2,29.87,ENE,60,0.0,0.0,92,0.00,,,0.00,0,Wunderground v.1.15,2013-06-04 05:29:00,
2013-06-04 00:35:00,71.3,68.9,29.87,ENE,60,0.0,0.0,92,0.00,,,0.00,0,Wunderground v.1.15,2013-06-04 05:35:00,
2013-06-04 00:40:00,71.2,68.8,29.87,ENE,60,0.0,0.0,92,0.00,,,0.00,0,Wunderground v.1.15,2013-06-04 05:40:00,
2013-06-04 00:45:00,71.1,69.0,29.87,ENE,60,0.0,0.0,93,0.00,,,0.00,0,Wunderground v.1.15,2013-06-04 05:45:00,
2013-06-04 00:55:00,70.8,68.7,29.86,ENE,60,0.0,0.0,93,0.00,,,0.00,0,Wunderground v.1.15,2013-06-04 05:55:00,
2013-06-04 01:05:00,70.4,68.3,29.87,ENE,61,0.0,0.0,93,0.00,,,0.00,0,Wunderground v.1.15,2013-06-04 06:05:00,
2013-06-04 01:10:00,70.3,68.2,29.86,ENE,60,0.0,0.0,93,0.00,,,0.00,0,Wunderground v.1.15,2013-06-04 06:10:00,
2013-06-04 01:15:00,70.3,68.5,29.86,ENE,60,0.0,0.0,94,0.00,,,0.00,0,Wunderground v.1.15,2013-06-04 06:15:00,
2013-06-04 01:24:00,70.1,68.3,29.86,ENE,60,0.0,0.0,94,0.00,,,0.00,0,Wunderground v.1.15,2013-06-04 06:24:00,
2013-06-04 01:35:00,70.0,68.2,29.86,ENE,60,0.0,0.0,94,0.00,,,0.00,0,Wunderground v.1.15,2013-06-04 06:35:00,
2013-06-04 01:40:00,69.9,68.1,29.86,ENE,60,0.0,0.0,94,0.00,,,0.00,0,Wunderground v.1.15,2013-06-04 06:40:00,
2013-06-04 01:45:00,69.8,68.0,29.86,ENE,60,0.0,0.0,94,0.00,,,0.00,0,Wunderground v.1.15,2013-06-04 06:45:00,
2013-06-04 01:54:00,69.6,67.8,29.86,ENE,60,0.0,0.0,94,0.00,,,0.00,0,Wunderground v.1.15,2013-06-04 06:54:00,
2013-06-04 01:59:00,69.4,67.6,29.86,ENE,60,0.0,0.0,94,0.00,,,0.00,0,Wunderground v.1.15,2013-06-04 06:59:00,
2013-06-04 02:05:00,69.3,67.5,29.86,ENE,60,0.0,0.0,94,0.00,,,0.00,0,Wunderground v.1.15,2013-06-04 07:05:00,
2013-06-04 02:10:00,69.3,67.8,29.86,ENE,60,0.0,0.0,95,0.00,,,0.00,0,Wunderground v.1.15,2013-06-04 07:10:00,
2013-06-04 02:15:00,69.2,67.7,29.87,ENE,60,0.0,0.0,95,0.00,,,0.00,0,Wunderground v.1.15,2013-06-04 07:15:00,
2013-06-04 02:20:00,69.1,67.6,29.87,ENE,60,0.0,0.0,95,0.00,,,0.00,0,Wunderground v.1.15,2013-06-04 07:20:00,
2013-06-04 02:29:00,68.9,67.4,29.87,ENE,60,0.0,0.0,95,0.00,,,0.00,0,Wunderground v.1.15,2013-06-04 07:29:00,
2013-06-04 02:35:00,68.8,67.3,29.87,ENE,60,0.0,0.0,95,0.00,,,0.00,0,Wunderground v.1.15,2013-06-04 07:35:00,
2013-06-04 02:40:00,68.7,67.2,29.87,ENE,60,0.0,0.0,95,0.00,,,0.00,0,Wunderground v.1.15,2013-06-04 07:40:00,
2013-06-04 02:45:00,68.6,67.1,29.87,ENE,60,0.0,0.0,95,0.00,,,0.00,0,Wunderground v.1.15,2013-06-04 07:45:00,
2013-06-04 02:54:00,68.6,67.1,29.87,ENE,60,0.0,0.0,95,0.00,,,0.00,0,Wunderground v.1.15,2013-06-04 07:54:00,
2013-06-04 02:59:00,68.6,67.1,29.87,ENE,60,0.0,0.0,95,0.00,,,0.00,0,Wunderground v.1.15,2013-06-04 07:59:00,
2013-06-04 03:05:00,68.6,67.1,29.87,ENE,60,0.0,0.0,95,0.00,,,0.00,0,Wunderground v.1.15,2013-06-04 08:05:00,
2013-06-04 03:10:00,68.6,67.1,29.87,ENE,60,0.0,0.0,95,0.00,,,0.00,0,Wunderground v.1.15,2013-06-04 08:10:00,
2013-06-04 03:19:00,68.5,67.0,29.87,ENE,60,0.0,0.0,95,0.00,,,0.00,0,Wunderground v.1.15,2013-06-04 08:19:00,
2013-06-04 03:24:00,68.4,66.9,29.87,ENE,60,0.0,0.0,95,0.00,,,0.00,0,Wunderground v.1.15,2013-06-04 08:24:00,
2013-06-04 03:30:00,68.4,66.9,29.88,ENE,61,0.0,0.0,95,0.00,,,0.00,0,Wunderground v.1.15,2013-06-04 08:30:00,
2013-06-04 03:35:00,68.3,66.8,29.88,ENE,60,0.0,0.0,95,0.00,,,0.00,0,Wunderground v.1.15,2013-06-04 08:35:00,
2013-06-04 03:40:00,68.3,66.8,29.88,ENE,60,0.0,0.0,95,0.00,,,0.00,0,Wunderground v.1.15,2013-06-04 08:40:00,
2013-06-04 03:50:00,68.5,67.3,29.88,ENE,60,0.0,0.0,96,0.00,,,0.00,0,Wunderground v.1.15,2013-06-04 08:50:00,
2013-06-04 03:55:00,68.6,67.1,29.88,ENE,60,0.0,0.0,95,0.00,,,0.00,0,Wunderground v.1.15,2013-06-04 08:55:00,
2013-06-04 04:00:00,68.6,67.1,29.88,ENE,60,0.0,0.0,95,0.00,,,0.00,0,Wunderground v.1.15,2013-06-04 09:00:00,
2013-06-04 04:09:00,68.8,67.3,29.88,ENE,60,0.0,0.0,95,0.00,,,0.00,0,Wunderground v.1.15,2013-06-04 09:09:00,
2013-06-04 04:14:00,68.8,67.3,29.88,ENE,60,0.0,0.0,95,0.00,,,0.00,0,Wunderground v.1.15,2013-06-04 09:14:00,
2013-06-04 04:20:00,68.9,67.7,29.88,ENE,61,0.0,0.0,96,0.00,,,0.00,0,Wunderground v.1.15,2013-06-04 09:20:00,
2013-06-04 04:25:00,69.0,67.8,29.88,ENE,60,0.0,0.0,96,0.00,,,0.00,0,Wunderground v.1.15,2013-06-04 09:25:00,
2013-06-04 04:34:00,69.2,67.7,29.88,ENE,60,0.0,0.0,95,0.00,,,0.00,0,Wunderground v.1.15,2013-06-04 09:34:00,
2013-06-04 04:39:00,69.3,67.8,29.88,ENE,61,0.0,0.0,95,0.00,,,0.00,0,Wunderground v.1.15,2013-06-04 09:39:00,
2013-06-04 04:44:00,69.4,67.9,29.88,NE,55,0.0,0.0,95,0.00,,,0.00,0,Wunderground v.1.15,2013-06-04 09:44:00,
2013-06-04 04:50:00,69.5,68.0,29.88,NE,55,0.0,0.0,95,0.00,,,0.00,0,Wunderground v.1.15,2013-06-04 09:50:00,
2013-06-04 04:55:00,69.6,68.1,29.88,NE,55,0.0,0.0,95,0.00,,,0.00,0,Wunderground v.1.15,2013-06-04 09:55:00,
2013-06-04 05:00:00,69.7,68.2,29.88,NE,55,0.0,0.0,95,0.00,,,0.00,0,Wunderground v.1.15,2013-06-04 10:00:00,
2013-06-04 05:09:00,69.9,68.1,29.88,NE,56,0.0,0.0,94,0.00,,,0.00,0,Wunderground v.1.15,2013-06-04 10:09:00,
2013-06-04 05:14:00,69.9,68.1,29.88,ESE,102,0.0,0.0,94,0.00,,,0.00,0,Wunderground v.1.15,2013-06-04 10:14:00,
2013-06-04 05:20:00,69.9,68.1,29.88,East,91,1.0,1.0,94,0.00,,,0.00,0,Wunderground v.1.15,2013-06-04 10:20:00,
2013-06-04 05:25:00,69.9,68.1,29.88,East,84,1.0,1.0,94,0.00,,,0.00,0,Wunderground v.1.15,2013-06-04 10:25:00,
2013-06-04 05:30:00,69.9,68.1,29.88,East,84,1.0,1.0,94,0.00,,,0.00,0,Wunderground v.1.15,2013-06-04 10:30:00,
2013-06-04 05:39:00,69.8,68.0,29.88,East,80,0.0,1.0,94,0.00,,,0.00,0,Wunderground v.1.15,2013-06-04 10:39:00,
2013-06-04 05:44:00,69.7,67.9,29.88,ENE,71,1.0,1.0,94,0.00,,,0.00,0,Wunderground v.1.15,2013-06-04 10:44:00,
2013-06-04 05:50:00,69.7,67.9,29.87,ENE,74,0.0,1.0,94,0.00,,,0.00,0,Wunderground v.1.15,2013-06-04 10:50:00,
2013-06-04 05:55:00,69.6,67.8,29.87,ENE,74,0.0,1.0,94,0.00,,,0.00,0,Wunderground v.1.15,2013-06-04 10:55:00,
2013-06-04 06:00:00,69.5,67.7,29.87,ESE,107,0.0,0.0,94,0.00,,,0.00,0,Wunderground v.1.15,2013-06-04 11:00:00,
2013-06-04 06:09:00,69.5,67.7,29.87,ESE,107,0.0,0.0,94,0.00,,,0.00,0,Wunderground v.1.15,2013-06-04 11:09:00,
2013-06-04 06:20:00,69.3,67.5,29.87,ESE,107,0.0,0.0,94,0.00,,,0.00,7,Wunderground v.1.15,2013-06-04 11:20:00,
2013-06-04 06:25:00,69.3,67.5,29.87,ESE,107,1.0,1.0,94,0.00,,,0.00,11,Wunderground v.1.15,2013-06-04 11:25:00,
2013-06-04 06:30:00,69.3,67.5,29.87,ESE,107,0.0,0.0,94,0.00,,,0.00,14,Wunderground v.1.15,2013-06-04 11:30:00,
2013-06-04 06:39:00,69.2,67.4,29.87,ESE,107,0.0,0.0,94,0.00,,,0.00,23,Wunderground v.1.15,2013-06-04 11:39:00,
2013-06-04 06:45:00,69.2,67.7,29.87,ESE,107,0.0,0.0,95,0.00,,,0.00,26,Wunderground v.1.15,2013-06-04 11:45:00,
2013-06-04 06:50:00,69.2,67.7,29.87,ESE,107,0.0,0.0,95,0.00,,,0.00,33,Wunderground v.1.15,2013-06-04 11:50:00,
2013-06-04 06:55:00,69.2,67.7,29.87,ESE,107,0.0,0.0,95,0.00,,,0.00,60,Wunderground v.1.15,2013-06-04 11:55:00,
2013-06-04 07:05:00,69.8,68.3,29.88,ESE,107,0.0,0.0,95,0.00,,,0.00,84,Wunderground v.1.15,2013-06-04 12:05:00,
2013-06-04 07:10:00,70.2,68.4,29.87,ESE,107,0.0,0.0,94,0.00,,,0.00,104,Wunderground v.1.15,2013-06-04 12:10:00,
2013-06-04 07:15:00,70.6,68.8,29.87,ESE,107,0.0,0.0,94,0.00,,,0.00,123,Wunderground v.1.15,2013-06-04 12:15:00,
2013-06-04 07:24:00,71.3,68.9,29.88,East,92,1.0,1.0,92,0.00,,,0.00,158,Wunderground v.1.15,2013-06-04 12:24:00,
2013-06-04 07:35:00,72.1,69.3,29.88,East,97,1.0,1.0,91,0.00,,,0.00,188,Wunderground v.1.15,2013-06-04 12:35:00,
2013-06-04 07:40:00,72.6,69.5,29.88,East,100,1.0,1.0,90,0.00,,,0.00,206,Wunderground v.1.15,2013-06-04 12:40:00,
2013-06-04 07:45:00,73.1,70.0,29.88,ESE,112,1.0,1.0,90,0.00,,,0.00,229,Wunderground v.1.15,2013-06-04 12:45:00,
2013-06-04 07:54:00,73.9,70.5,29.89,East,87,1.0,2.0,89,0.00,,,0.00,267,Wunderground v.1.15,2013-06-04 12:54:00,
2013-06-04 07:59:00,74.5,70.7,29.88,ESE,111,0.0,0.0,88,0.00,,,0.00,288,Wunderground v.1.15,2013-06-04 12:59:00,
2013-06-04 08:05:00,75.2,71.1,29.89,ESE,112,0.0,1.0,87,0.00,,,0.00,304,Wunderground v.1.15,2013-06-04 13:05:00,
2013-06-04 08:10:00,75.9,71.1,29.89,ESE,112,0.0,0.0,85,0.00,,,0.00,322,Wunderground v.1.15,2013-06-04 13:10:00,
2013-06-04 08:15:00,76.1,71.6,29.89,SE,140,0.0,0.0,86,0.00,,,0.00,341,Wunderground v.1.15,2013-06-04 13:15:00,
2013-06-04 08:24:00,77.3,72.1,29.89,SE,142,0.0,0.0,84,0.00,,,0.00,380,Wunderground v.1.15,2013-06-04 13:24:00,
2013-06-04 08:30:00,77.9,72.3,29.89,SE,139,0.0,2.0,83,0.00,,,0.00,397,Wunderground v.1.15,2013-06-04 13:30:00,
2013-06-04 08:35:00,77.8,72.2,29.90,East,96,1.0,2.0,83,0.00,,,0.00,413,Wunderground v.1.15,2013-06-04 13:35:00,
2013-06-04 08:45:00,78.9,72.9,29.90,East,96,0.0,1.0,82,0.00,,,0.00,443,Wunderground v.1.15,2013-06-04 13:45:00,
2013-06-04 08:55:00,80.0,73.3,29.90,ESE,102,0.0,1.0,80,0.00,,,0.00,487,Wunderground v.1.15,2013-06-04 13:55:00,
2013-06-04 09:00:00,80.3,73.6,29.91,ESE,102,0.0,1.0,80,0.00,,,0.00,501,Wunderground v.1.15,2013-06-04 14:00:00,
2013-06-04 09:09:00,80.3,73.9,29.91,ESE,102,0.0,2.0,81,0.00,,,0.00,534,Wunderground v.1.15,2013-06-04 14:09:00,
2013-06-04 09:20:00,80.8,73.7,29.91,East,101,0.0,0.0,79,0.00,,,0.00,571,Wunderground v.1.15,2013-06-04 14:20:00,
2013-06-04 09:25:00,81.2,74.4,29.91,East,101,0.0,1.0,80,0.00,,,0.00,585,Wunderground v.1.15,2013-06-04 14:25:00,
2013-06-04 09:30:00,81.5,74.4,29.91,East,101,0.0,0.0,79,0.00,,,0.00,606,Wunderground v.1.15,2013-06-04 14:30:00,
2013-06-04 09:39:00,83.4,75.4,29.91,East,101,0.0,1.0,77,0.00,,,0.00,638,Wunderground v.1.15,2013-06-04 14:39:00,
2013-06-04 09:44:00,83.7,75.3,29.91,ESE,102,0.0,1.0,76,0.00,,,0.00,650,Wunderground v.1.15,2013-06-04 14:44:00,
2013-06-04 09:50:00,84.1,75.3,29.91,ESE,115,0.0,0.0,75,0.00,,,0.00,670,Wunderground v.1.15,2013-06-04 14:50:00,
2013-06-04 09:55:00,84.3,74.7,29.92,ESE,115,0.0,0.0,73,0.00,,,0.00,684,Wunderground v.1.15,2013-06-04 14:55:00,
2013-06-04 10:00:00,84.3,75.9,29.92,ESE,115,0.0,0.0,76,0.00,,,0.00,526,Wunderground v.1.15,2013-06-04 15:00:00,
2013-06-04 10:09:00,84.9,74.4,29.92,South,173,0.0,0.0,71,0.00,,,0.00,160,Wunderground v.1.15,2013-06-04 15:09:00,
2013-06-04 10:15:00,84.7,73.8,29.92,South,173,1.0,1.0,70,0.00,,,0.00,227,Wunderground v.1.15,2013-06-04 15:15:00,
2013-06-04 10:20:00,84.6,74.6,29.92,South,173,0.0,0.0,72,0.00,,,0.00,821,Wunderground v.1.15,2013-06-04 15:20:00,
2013-06-04 10:30:00,85.4,74.5,29.92,South,169,0.0,1.0,70,0.00,,,0.00,174,Wunderground v.1.15,2013-06-04 15:30:00,
2013-06-04 10:40:00,85.0,73.7,29.92,SSE,165,1.0,1.0,69,0.00,,,0.00,967,Wunderground v.1.15,2013-06-04 15:40:00,
2013-06-04 10:45:00,85.3,74.8,29.92,South,179,1.0,3.0,71,0.00,,,0.00,1041,Wunderground v.1.15,2013-06-04 15:45:00,
2013-06-04 10:54:00,86.3,74.5,29.92,SSW,201,2.0,2.0,68,0.00,,,0.00,234,Wunderground v.1.15,2013-06-04 15:54:00,
2013-06-04 10:59:00,86.3,74.0,29.92,SSW,200,1.0,2.0,67,0.00,,,0.00,193,Wunderground v.1.15,2013-06-04 15:59:00,
2013-06-04 11:05:00,86.7,74.4,29.92,SW,217,1.0,2.0,67,0.00,,,0.00,937,Wunderground v.1.15,2013-06-04 16:05:00,
2013-06-04 11:10:00,87.4,73.3,29.91,South,173,1.0,4.0,63,0.00,,,0.00,946,Wunderground v.1.15,2013-06-04 16:10:00,
2013-06-04 11:15:00,87.9,75.6,29.91,South,178,1.0,4.0,67,0.00,,,0.00,1000,Wunderground v.1.15,2013-06-04 16:15:00,
2013-06-04 11:20:00,88.1,73.9,29.92,South,189,1.0,3.0,63,0.00,,,0.00,1004,Wunderground v.1.15,2013-06-04 16:20:00,
2013-06-04 11:29:00,87.5,74.7,29.91,WSW,247,2.0,2.0,66,0.00,,,0.00,984,Wunderground v.1.15,2013-06-04 16:29:00,
2013-06-04 11:35:00,87.4,73.3,29.91,ESE,114,2.0,2.0,63,0.00,,,0.00,1004,Wunderground v.1.15,2013-06-04 16:35:00,
2013-06-04 11:45:00,87.6,73.9,29.91,SW,216,1.0,3.0,64,0.00,,,0.00,998,Wunderground v.1.15,2013-06-04 16:45:00,
2013-06-04 11:54:00,88.0,74.3,29.92,SSE,152,3.0,6.0,64,0.00,,,0.00,1013,Wunderground v.1.15,2013-06-04 16:54:00,
2013-06-04 11:59:00,88.1,74.8,29.91,SW,224,3.0,3.0,65,0.00,,,0.00,1071,Wunderground v.1.15,2013-06-04 16:59:00,
2013-06-04 12:05:00,88.3,74.6,29.91,SW,220,1.0,3.0,64,0.00,,,0.00,192,Wunderground v.1.15,2013-06-04 17:05:00,
2013-06-04 12:10:00,88.1,73.9,29.91,SSE,161,1.0,1.0,63,0.00,,,0.00,1048,Wunderground v.1.15,2013-06-04 17:10:00,
2013-06-04 12:19:00,87.6,74.8,29.91,SSE,159,0.0,0.0,66,0.00,,,0.00,216,Wunderground v.1.15,2013-06-04 17:19:00,
2013-06-04 12:24:00,87.4,72.3,29.91,SW,219,0.0,2.0,61,0.00,,,0.00,192,Wunderground v.1.15,2013-06-04 17:24:00,
2013-06-04 12:29:00,87.1,74.8,29.91,SW,219,0.0,0.0,67,0.00,,,0.00,374,Wunderground v.1.15,2013-06-04 17:29:00,
2013-06-04 12:35:00,86.9,73.3,29.91,SE,140,0.0,2.0,64,0.00,,,0.00,1071,Wunderground v.1.15,2013-06-04 17:35:00,
2013-06-04 12:40:00,87.4,72.8,29.90,South,186,1.0,3.0,62,0.00,,,0.00,1086,Wunderground v.1.15,2013-06-04 17:40:00,
2013-06-04 12:49:00,87.6,72.0,29.90,ENE,71,2.0,2.0,60,0.00,,,0.00,1127,Wunderground v.1.15,2013-06-04 17:49:00,
2013-06-04 12:54:00,88.1,74.4,29.90,ENE,71,2.0,2.0,64,0.00,,,0.00,1100,Wunderground v.1.15,2013-06-04 17:54:00,
2013-06-04 13:00:00,88.7,73.5,29.90,SW,214,1.0,3.0,61,0.00,,,0.00,1035,Wunderground v.1.15,2013-06-04 18:00:00,
2013-06-04 13:05:00,89.7,73.0,29.90,SW,229,1.0,3.0,58,0.00,,,0.00,1220,Wunderground v.1.15,2013-06-04 18:05:00,
2013-06-04 13:14:00,89.9,72.1,29.90,SW,217,0.0,1.0,56,0.00,,,0.00,318,Wunderground v.1.15,2013-06-04 18:14:00,
2013-06-04 13:19:00,89.6,72.3,29.90,SW,217,0.0,0.0,57,0.00,,,0.00,207,Wunderground v.1.15,2013-06-04 18:19:00,
2013-06-04 13:29:00,88.8,72.1,29.89,SW,217,0.0,0.0,58,0.00,,,0.00,244,Wunderground v.1.15,2013-06-04 18:29:00,
2013-06-04 13:35:00,88.8,73.1,29.89,SW,217,0.0,0.0,60,0.00,,,0.00,1090,Wunderground v.1.15,2013-06-04 18:35:00,
2013-06-04 13:40:00,89.5,72.3,29.89,NNE,32,1.0,1.0,57,0.00,,,0.00,1113,Wunderground v.1.15,2013-06-04 18:40:00,
2013-06-04 13:50:00,91.1,73.7,29.88,WNW,290,0.0,1.0,57,0.00,,,0.00,1037,Wunderground v.1.15,2013-06-04 18:50:00,
2013-06-04 13:55:00,91.3,72.9,29.88,South,181,0.0,3.0,55,0.00,,,0.00,1018,Wunderground v.1.15,2013-06-04 18:55:00,
2013-06-04 14:05:00,91.0,72.6,29.88,ENE,76,1.0,3.0,55,0.00,,,0.00,1074,Wunderground v.1.15,2013-06-04 19:05:00,
2013-06-04 14:14:00,90.3,72.5,29.87,North,360,2.0,4.0,56,0.00,,,0.00,1018,Wunderground v.1.15,2013-06-04 19:14:00,
2013-06-04 14:20:00,90.1,72.8,29.87,NE,38,1.0,1.0,57,0.00,,,0.00,1018,Wunderground v.1.15,2013-06-04 19:20:00,
2013-06-04 14:25:00,90.3,72.5,29.87,East,93,0.0,1.0,56,0.00,,,0.00,998,Wunderground v.1.15,2013-06-04 19:25:00,
2013-06-04 14:30:00,90.3,73.5,29.86,East,98,0.0,0.0,58,0.00,,,0.00,995,Wunderground v.1.15,2013-06-04 19:30:00,
2013-06-04 14:39:00,91.3,72.9,29.86,SE,124,0.0,0.0,55,0.00,,,0.00,1023,Wunderground v.1.15,2013-06-04 19:39:00,
2013-06-04 14:44:00,91.8,72.8,29.86,ENE,78,0.0,3.0,54,0.00,,,0.00,969,Wunderground v.1.15,2013-06-04 19:44:00,
2013-06-04 14:50:00,90.7,70.1,29.85,NE,38,2.0,2.0,51,0.00,,,0.00,965,Wunderground v.1.15,2013-06-04 19:50:00,
2013-06-04 14:55:00,90.1,72.8,29.85,South,188,2.0,2.0,57,0.00,,,0.00,983,Wunderground v.1.15,2013-06-04 19:55:00,
2013-06-04 15:00:00,90.0,73.7,29.85,ESE,115,1.0,1.0,59,0.00,,,0.00,146,Wunderground v.1.15,2013-06-04 20:00:00,
2013-06-04 15:09:00,89.2,71.5,29.85,East,81,1.0,3.0,56,0.00,,,0.00,183,Wunderground v.1.15,2013-06-04 20:09:00,
2013-06-04 15:20:00,88.9,72.2,29.84,East,101,1.0,1.0,58,0.00,,,0.00,171,Wunderground v.1.15,2013-06-04 20:20:00,
2013-06-04 15:25:00,88.7,75.0,29.84,East,100,0.0,1.0,64,0.00,,,0.00,171,Wunderground v.1.15,2013-06-04 20:25:00,
2013-06-04 15:30:00,89.0,71.8,29.84,SE,143,0.0,3.0,57,0.00,,,0.00,840,Wunderground v.1.15,2013-06-04 20:30:00,
2013-06-04 15:39:00,89.8,72.0,29.84,East,101,2.0,2.0,56,0.00,,,0.00,823,Wunderground v.1.15,2013-06-04 20:39:00,
2013-06-04 15:44:00,90.1,70.7,29.84,ENE,74,2.0,2.0,53,0.00,,,0.00,807,Wunderground v.1.15,2013-06-04 20:44:00,
2013-06-04 15:50:00,90.0,70.6,29.85,ENE,76,2.0,2.0,53,0.00,,,0.00,471,Wunderground v.1.15,2013-06-04 20:50:00,
2013-06-04 15:55:00,90.6,71.7,29.85,ENE,78,1.0,2.0,54,0.00,,,0.00,809,Wunderground v.1.15,2013-06-04 20:55:00,
2013-06-04 16:04:00,90.8,70.7,29.84,East,92,1.0,1.0,52,0.00,,,0.00,795,Wunderground v.1.15,2013-06-04 21:04:00,
2013-06-04 16:09:00,90.9,70.8,29.84,NE,52,1.0,1.0,52,0.00,,,0.00,772,Wunderground v.1.15,2013-06-04 21:09:00,
2013-06-04 16:15:00,91.0,71.5,29.84,East,89,1.0,1.0,53,0.00,,,0.00,722,Wunderground v.1.15,2013-06-04 21:15:00,
2013-06-04 16:20:00,91.1,72.7,29.83,South,172,1.0,1.0,55,0.00,,,0.00,696,Wunderground v.1.15,2013-06-04 21:20:00,
2013-06-04 16:25:00,91.6,72.0,29.83,SSW,205,1.0,1.0,53,0.00,,,0.00,679,Wunderground v.1.15,2013-06-04 21:25:00,
2013-06-04 16:34:00,91.6,72.6,29.83,East,84,1.0,3.0,54,0.00,,,0.00,642,Wunderground v.1.15,2013-06-04 21:34:00,
2013-06-04 16:40:00,90.6,72.2,29.83,East,85,3.0,3.0,55,0.00,,,0.00,610,Wunderground v.1.15,2013-06-04 21:40:00,
2013-06-04 16:45:00,90.0,71.7,29.83,East,85,1.0,3.0,55,0.00,,,0.00,125,Wunderground v.1.15,2013-06-04 21:45:00,
2013-06-04 16:54:00,89.7,71.9,29.82,ENE,77,1.0,3.0,56,0.00,,,0.00,587,Wunderground v.1.15,2013-06-04 21:54:00,
2013-06-04 17:05:00,90.5,72.7,29.82,South,175,1.0,3.0,56,0.00,,,0.00,555,Wunderground v.1.15,2013-06-04 22:05:00,
2013-06-04 17:10:00,90.9,73.0,29.82,SE,133,0.0,0.0,56,0.00,,,0.00,531,Wunderground v.1.15,2013-06-04 22:10:00,
2013-06-04 17:15:00,91.3,73.9,29.82,SE,133,0.0,0.0,57,0.00,,,0.00,526,Wunderground v.1.15,2013-06-04 22:15:00,
2013-06-04 17:24:00,90.9,71.4,29.82,SE,138,1.0,1.0,53,0.00,,,0.00,483,Wunderground v.1.15,2013-06-04 22:24:00,
2013-06-04 17:29:00,91.0,72.0,29.81,SSE,149,0.0,0.0,54,0.00,,,0.00,468,Wunderground v.1.15,2013-06-04 22:29:00,
2013-06-04 17:35:00,91.1,72.7,29.81,SSE,151,0.0,0.0,55,0.00,,,0.00,457,Wunderground v.1.15,2013-06-04 22:35:00,
2013-06-04 17:40:00,91.2,72.8,29.81,SSE,157,0.0,0.0,55,0.00,,,0.00,438,Wunderground v.1.15,2013-06-04 22:40:00,
2013-06-04 17:45:00,91.3,72.3,29.81,SSE,157,0.0,0.0,54,0.00,,,0.00,425,Wunderground v.1.15,2013-06-04 22:45:00,
2013-06-04 17:55:00,90.9,72.5,29.81,SSE,165,1.0,2.0,55,0.00,,,0.00,390,Wunderground v.1.15,2013-06-04 22:55:00,
2013-06-04 18:00:00,90.8,72.9,29.81,SSE,158,1.0,1.0,56,0.00,,,0.00,373,Wunderground v.1.15,2013-06-04 23:00:00,
2013-06-04 18:09:00,90.6,73.8,29.81,South,180,1.0,1.0,58,0.00,,,0.00,352,Wunderground v.1.15,2013-06-04 23:09:00,
2013-06-04 18:19:00,90.5,74.7,29.82,SSE,167,0.0,0.0,60,0.00,,,0.00,350,Wunderground v.1.15,2013-06-04 23:19:00,
2013-06-04 18:24:00,90.4,74.6,29.82,SW,215,1.0,2.0,60,0.00,,,0.00,318,Wunderground v.1.15,2013-06-04 23:24:00,
2013-06-04 18:29:00,90.2,75.4,29.82,South,173,2.0,2.0,62,0.00,,,0.00,283,Wunderground v.1.15,2013-06-04 23:29:00,
2013-06-04 18:35:00,89.8,74.6,29.81,South,178,3.0,5.0,61,0.00,,,0.00,258,Wunderground v.1.15,2013-06-04 23:35:00,
2013-06-04 18:44:00,88.9,74.7,29.82,SSW,205,1.0,3.0,63,0.00,,,0.00,227,Wunderground v.1.15,2013-06-04 23:44:00,
2013-06-04 18:49:00,88.4,74.2,29.82,South,170,1.0,2.0,63,0.00,,,0.00,42,Wunderground v.1.15,2013-06-04 23:49:00,
2013-06-04 18:55:00,87.8,75.0,29.82,South,169,2.0,2.0,66,0.00,,,0.00,76,Wunderground v.1.15,2013-06-04 23:55:00,
2013-06-04 19:00:00,87.3,74.1,29.82,SSW,209,1.0,1.0,65,0.00,,,0.00,33,Wunderground v.1.15,2013-06-05 00:00:00,
2013-06-04 19:09:00,86.3,74.0,29.82,SSW,209,0.0,0.0,67,0.00,,,0.00,30,Wunderground v.1.15,2013-06-05 00:09:00,
2013-06-04 19:14:00,85.8,74.4,29.82,SSW,209,0.0,0.0,69,0.00,,,0.00,30,Wunderground v.1.15,2013-06-05 00:14:00,
2013-06-04 19:20:00,85.3,74.4,29.82,SSW,209,0.0,0.0,70,0.00,,,0.00,30,Wunderground v.1.15,2013-06-05 00:20:00,
2013-06-04 19:30:00,84.7,74.7,29.82,SSW,208,0.0,0.0,72,0.00,,,0.00,63,Wunderground v.1.15,2013-06-05 00:30:00,
2013-06-04 19:39:00,84.5,74.5,29.82,South,181,0.0,0.0,72,0.00,,,0.00,32,Wunderground v.1.15,2013-06-05 00:39:00,
2013-06-04 19:44:00,84.4,74.8,29.82,South,182,0.0,0.0,73,0.00,,,0.00,23,Wunderground v.1.15,2013-06-05 00:44:00,
2013-06-04 19:50:00,84.1,74.1,29.82,South,184,0.0,0.0,72,0.00,,,0.00,18,Wunderground v.1.15,2013-06-05 00:50:00,
2013-06-04 19:59:00,83.6,74.4,29.83,South,184,0.0,0.0,74,0.00,,,0.00,12,Wunderground v.1.15,2013-06-05 00:59:00,
2013-06-04 20:05:00,83.2,74.4,29.83,South,185,0.0,0.0,75,0.00,,,0.00,9,Wunderground v.1.15,2013-06-05 01:05:00,
2013-06-04 20:10:00,82.7,74.8,29.83,South,185,0.0,0.0,77,0.00,,,0.00,7,Wunderground v.1.15,2013-06-05 01:10:00,
2013-06-04 20:15:00,82.2,73.9,29.83,South,191,0.0,0.0,76,0.00,,,0.00,0,Wunderground v.1.15,2013-06-05 01:15:00,
2013-06-04 20:24:00,81.5,73.6,29.83,SSE,162,0.0,0.0,77,0.00,,,0.00,0,Wunderground v.1.15,2013-06-05 01:24:00,
2013-06-04 20:29:00,81.2,73.3,29.83,SSE,162,0.0,0.0,77,0.00,,,0.00,0,Wunderground v.1.15,2013-06-05 01:29:00,
2013-06-04 20:35:00,80.8,73.3,29.83,SSE,162,0.0,0.0,78,0.00,,,0.00,0,Wunderground v.1.15,2013-06-05 01:35:00,
2013-06-04 20:40:00,80.4,72.9,29.83,SSE,162,0.0,0.0,78,0.00,,,0.00,0,Wunderground v.1.15,2013-06-05 01:40:00,
2013-06-04 20:45:00,80.0,72.9,29.83,SSE,162,0.0,0.0,79,0.00,,,0.00,0,Wunderground v.1.15,2013-06-05 01:45:00,
2013-06-04 20:55:00,79.6,72.5,29.84,South,187,0.0,2.0,79,0.00,,,0.00,0,Wunderground v.1.15,2013-06-05 01:55:00,
2013-06-04 21:00:00,79.6,72.5,29.84,South,190,0.0,0.0,79,0.00,,,0.00,0,Wunderground v.1.15,2013-06-05 02:00:00,
2013-06-04 21:09:00,79.3,72.6,29.84,South,190,0.0,0.0,80,0.00,,,0.00,0,Wunderground v.1.15,2013-06-05 02:09:00,
2013-06-04 21:20:00,78.8,72.1,29.84,South,187,0.0,0.0,80,0.00,,,0.00,0,Wunderground v.1.15,2013-06-05 02:20:00,
2013-06-04 21:25:00,78.7,72.0,29.85,South,187,0.0,0.0,80,0.00,,,0.00,0,Wunderground v.1.15,2013-06-05 02:25:00,
2013-06-04 21:30:00,78.5,72.2,29.85,South,187,0.0,0.0,81,0.00,,,0.00,0,Wunderground v.1.15,2013-06-05 02:30:00,
2013-06-04 21:39:00,78.1,72.2,29.85,South,191,1.0,1.0,82,0.00,,,0.00,0,Wunderground v.1.15,2013-06-05 02:39:00,
2013-06-04 21:44:00,78.0,72.1,29.86,South,173,1.0,2.0,82,0.00,,,0.00,0,Wunderground v.1.15,2013-06-05 02:44:00,
2013-06-04 21:49:00,77.8,71.9,29.86,South,173,0.0,0.0,82,0.00,,,0.00,0,Wunderground v.1.15,2013-06-05 02:49:00,
2013-06-04 21:55:00,77.7,72.1,29.86,South,173,0.0,0.0,83,0.00,,,0.00,0,Wunderground v.1.15,2013-06-05 02:55:00,
2013-06-04 22:00:00,77.4,71.8,29.86,South,173,0.0,0.0,83,0.00,,,0.00,0,Wunderground v.1.15,2013-06-05 03:00:00,
2013-06-04 22:09:00,76.9,72.0,29.87,South,173,0.0,0.0,85,0.00,,,0.00,0,Wunderground v.1.15,2013-06-05 03:09:00,
2013-06-04 22:14:00,76.8,71.9,29.87,South,173,0.0,0.0,85,0.00,,,0.00,0,Wunderground v.1.15,2013-06-05 03:14:00,
2013-06-04 22:20:00,76.6,72.1,29.87,South,179,0.0,0.0,86,0.00,,,0.00,0,Wunderground v.1.15,2013-06-05 03:20:00,
2013-06-04 22:24:00,76.4,71.9,29.87,South,180,0.0,0.0,86,0.00,,,0.00,0,Wunderground v.1.15,2013-06-05 03:24:00,
2013-06-04 22:30:00,76.3,71.8,29.88,South,180,0.0,0.0,86,0.00,,,0.00,0,Wunderground v.1.15,2013-06-05 03:30:00,
2013-06-04 22:39:00,76.3,72.1,29.88,South,180,0.0,0.0,87,0.00,,,0.00,0,Wunderground v.1.15,2013-06-05 03:39:00,
2013-06-04 22:44:00,76.2,72.0,29.88,South,180,0.0,0.0,87,0.00,,,0.00,0,Wunderground v.1.15,2013-06-05 03:44:00,
2013-06-04 22:50:00,76.1,71.9,29.89,South,180,0.0,0.0,87,0.00,,,0.00,0,Wunderground v.1.15,2013-06-05 03:50:00,
2013-06-04 22:55:00,76.0,71.8,29.89,South,180,0.0,0.0,87,0.00,,,0.00,0,Wunderground v.1.15,2013-06-05 03:55:00,
2013-06-04 23:04:00,75.6,72.1,29.88,South,190,0.0,0.0,89,0.00,,,0.00,0,Wunderground v.1.15,2013-06-05 04:04:00,
2013-06-04 23:09:00,75.5,72.0,29.89,South,190,0.0,0.0,89,0.00,,,0.00,0,Wunderground v.1.15,2013-06-05 04:09:00,
2013-06-04 23:14:00,75.3,71.8,29.89,South,190,0.0,0.0,89,0.00,,,0.00,0,Wunderground v.1.15,2013-06-05 04:14:00,
2013-06-04 23:20:00,75.1,71.6,29.89,South,190,0.0,0.0,89,0.00,,,0.00,0,Wunderground v.1.15,2013-06-05 04:20:00,
2013-06-04 23:25:00,74.9,71.8,29.88,South,190,0.0,0.0,90,0.00,,,0.00,0,Wunderground v.1.15,2013-06-05 04:25:00,
2013-06-04 23:30:00,74.8,71.7,29.88,South,190,0.0,0.0,90,0.00,,,0.00,0,Wunderground v.1.15,2013-06-05 04:30:00,
2013-06-04 23:34:00,74.6,71.5,29.88,South,190,0.0,0.0,90,0.00,,,0.00,0,Wunderground v.1.15,2013-06-05 04:34:00,
2013-06-04 23:39:00,74.3,71.5,29.88,South,190,0.0,0.0,91,0.00,,,0.00,0,Wunderground v.1.15,2013-06-05 04:39:00,
2013-06-04 23:44:00,74.1,71.3,29.88,South,190,0.0,0.0,91,0.00,,,0.00,0,Wunderground v.1.15,2013-06-05 04:44:00,
2013-06-04 23:49:00,74.0,71.2,29.89,South,190,0.0,0.0,91,0.00,,,0.00,0,Wunderground v.1.15,2013-06-05 04:49:00,
2013-06-04 23:55:00,73.8,71.3,29.88,South,190,0.0,0.0,92,0.00,,,0.00,0,Wunderground v.1.15,2013-06-05 04:55:00,